createdAt,value
2023-01-08T00:00:39.882Z,336.00
2023-01-08T00:01:39.845Z,334.00
2023-01-08T00:02:39.840Z,334.00
2023-01-08T00:03:39.870Z,335.00
2023-01-08T00:04:39.710Z,334.00
2023-01-08T00:05:39.660Z,334.00
2023-01-08T00:06:39.692Z,333.00
2023-01-08T00:07:39.566Z,333.00
2023-01-08T00:08:39.534Z,332.00
2023-01-08T00:09:39.480Z,333.00
2023-01-08T00:10:39.430Z,330.00
2023-01-08T00:11:39.396Z,330.00
2023-01-08T00:12:39.347Z,332.00
2023-01-08T00:13:39.314Z,332.00
2023-01-08T00:14:39.281Z,331.00
2023-01-08T00:15:39.266Z,332.00
2023-01-08T00:16:39.237Z,331.00
2023-01-08T00:17:39.160Z,330.00
2023-01-08T00:18:39.122Z,330.00
2023-01-08T00:19:39.083Z,329.00
2023-01-08T00:20:39.038Z,330.00
2023-01-08T00:21:39.003Z,330.00
2023-01-08T00:22:39.064Z,331.00
2023-01-08T00:23:38.916Z,335.00
2023-01-08T00:24:38.876Z,335.00
2023-01-08T00:25:38.843Z,337.00
2023-01-08T00:26:38.802Z,337.00
2023-01-08T00:27:38.770Z,337.00
2023-01-08T00:28:38.723Z,335.00
2023-01-08T00:29:38.697Z,333.00
2023-01-08T00:30:38.680Z,335.00
2023-01-08T00:31:38.617Z,334.00
2023-01-08T00:32:38.577Z,334.00
2023-01-08T00:33:38.535Z,334.00
2023-01-08T00:34:38.502Z,335.00
2023-01-08T00:35:38.456Z,336.00
2023-01-08T00:36:38.437Z,335.00
2023-01-08T00:37:38.383Z,339.00
2023-01-08T00:38:38.480Z,339.00
2023-01-08T00:39:38.316Z,339.00
2023-01-08T00:40:38.269Z,339.00
2023-01-08T00:41:38.238Z,339.00
2023-01-08T00:42:38.205Z,336.00
2023-01-08T00:43:38.163Z,335.00
2023-01-08T00:44:38.121Z,336.00
2023-01-08T00:45:38.121Z,338.00
2023-01-08T00:46:38.035Z,337.00
2023-01-08T00:47:38.005Z,336.00
2023-01-08T00:48:37.956Z,340.00
2023-01-08T00:49:37.920Z,338.00
2023-01-08T00:50:37.886Z,339.00
2023-01-08T00:51:37.842Z,339.00
2023-01-08T00:52:37.801Z,341.00
2023-01-08T00:53:37.760Z,341.00
2023-01-08T00:54:37.814Z,341.00
2023-01-08T00:55:37.687Z,344.00
2023-01-08T00:56:37.642Z,343.00
2023-01-08T00:57:37.606Z,342.00
2023-01-08T00:58:37.567Z,340.00
2023-01-08T00:59:37.545Z,343.00
2023-01-08T01:00:37.510Z,342.00
2023-01-08T01:01:37.628Z,339.00
2023-01-08T01:02:37.416Z,340.00
2023-01-08T01:03:37.386Z,340.00
2023-01-08T01:04:37.401Z,340.00
2023-01-08T01:05:37.335Z,338.00
2023-01-08T01:06:37.277Z,340.00
2023-01-08T01:07:37.244Z,341.00
2023-01-08T01:08:37.191Z,342.00
2023-01-08T01:09:37.151Z,340.00
2023-01-08T01:10:37.204Z,340.00
2023-01-08T01:11:37.072Z,341.00
2023-01-08T01:12:37.024Z,341.00
2023-01-08T01:13:37.006Z,339.00
2023-01-08T01:14:36.961Z,340.00
2023-01-08T01:15:36.910Z,342.00
2023-01-08T01:16:36.960Z,341.00
2023-01-08T01:17:36.824Z,339.00
2023-01-08T01:18:36.792Z,337.00
2023-01-08T01:19:36.759Z,338.00
2023-01-08T01:20:36.735Z,337.00
2023-01-08T01:21:36.668Z,334.00
2023-01-08T01:22:36.640Z,333.00
2023-01-08T01:23:36.591Z,334.00
2023-01-08T01:24:36.551Z,336.00
2023-01-08T01:25:36.525Z,335.00
2023-01-08T01:26:36.575Z,333.00
2023-01-08T01:27:36.443Z,330.00
2023-01-08T01:28:36.412Z,332.00
2023-01-08T01:29:36.369Z,334.00
2023-01-08T01:30:36.355Z,336.00
2023-01-08T01:31:36.301Z,338.00
2023-01-08T01:32:36.257Z,340.00
2023-01-08T01:33:36.231Z,340.00
2023-01-08T01:34:36.185Z,338.00
2023-01-08T01:35:36.152Z,337.00
2023-01-08T01:36:36.116Z,341.00
2023-01-08T01:37:36.097Z,341.00
2023-01-08T01:38:36.053Z,341.00
2023-01-08T01:39:36.013Z,339.00
2023-01-08T01:40:35.974Z,340.00
2023-01-08T01:41:35.939Z,338.00
2023-01-08T01:42:36.001Z,338.00
2023-01-08T01:43:35.873Z,336.00
2023-01-08T01:44:35.821Z,333.00
2023-01-08T01:45:35.800Z,333.00
2023-01-08T01:46:35.755Z,336.00
2023-01-08T01:47:35.729Z,334.00
2023-01-08T01:48:35.688Z,333.00
2023-01-08T01:49:35.657Z,333.00
2023-01-08T01:50:35.620Z,331.00
2023-01-08T01:51:35.571Z,331.00
2023-01-08T01:52:35.531Z,330.00
2023-01-08T01:53:35.509Z,332.00
2023-01-08T01:54:35.469Z,333.00
2023-01-08T01:55:35.432Z,335.00
2023-01-08T01:56:35.386Z,333.00
2023-01-08T01:57:35.351Z,334.00
2023-01-08T01:58:35.405Z,332.00
2023-01-08T01:59:35.277Z,336.00
2023-01-08T02:00:35.251Z,335.00
2023-01-08T02:01:35.398Z,333.00
2023-01-08T02:02:35.173Z,332.00
2023-01-08T02:03:35.260Z,333.00
2023-01-08T02:04:35.113Z,329.00
2023-01-08T02:05:35.068Z,331.00
2023-01-08T02:06:35.029Z,332.00
2023-01-08T02:07:34.977Z,333.00
2023-01-08T02:08:34.955Z,334.00
2023-01-08T02:09:34.921Z,336.00
2023-01-08T02:10:34.867Z,335.00
2023-01-08T02:11:34.834Z,336.00
2023-01-08T02:12:34.806Z,336.00
2023-01-08T02:13:34.767Z,332.00
2023-01-08T02:14:34.799Z,332.00
2023-01-08T02:15:34.670Z,333.00
2023-01-08T02:16:34.693Z,331.00
2023-01-08T02:17:34.597Z,331.00
2023-01-08T02:18:34.551Z,329.00
2023-01-08T02:19:34.516Z,332.00
2023-01-08T02:20:34.476Z,333.00
2023-01-08T02:21:34.441Z,333.00
2023-01-08T02:22:34.404Z,334.00
2023-01-08T02:23:34.373Z,336.00
2023-01-08T02:24:34.342Z,334.00
2023-01-08T02:25:34.308Z,337.00
2023-01-08T02:26:34.281Z,336.00
2023-01-08T02:27:34.241Z,338.00
2023-01-08T02:28:34.211Z,339.00
2023-01-08T02:29:34.177Z,336.00
2023-01-08T02:30:34.275Z,339.00
2023-01-08T02:31:34.099Z,334.00
2023-01-08T02:32:34.050Z,334.00
2023-01-08T02:33:34.030Z,334.00
2023-01-08T02:34:33.982Z,335.00
2023-01-08T02:35:33.939Z,335.00
2023-01-08T02:36:33.901Z,333.00
2023-01-08T02:37:33.868Z,330.00
2023-01-08T02:38:33.826Z,326.00
2023-01-08T02:39:33.804Z,328.00
2023-01-08T02:40:33.756Z,329.00
2023-01-08T02:41:33.720Z,328.00
2023-01-08T02:42:33.670Z,326.00
2023-01-08T02:43:33.634Z,326.00
2023-01-08T02:44:33.603Z,327.00
2023-01-08T02:45:33.565Z,328.00
2023-01-08T02:46:33.527Z,329.00
2023-01-08T02:47:33.502Z,329.00
2023-01-08T02:48:33.461Z,324.00
2023-01-08T02:49:33.427Z,328.00
2023-01-08T02:50:33.382Z,328.00
2023-01-08T02:51:33.349Z,330.00
2023-01-08T02:52:33.332Z,334.00
2023-01-08T02:53:33.286Z,335.00
2023-01-08T02:54:33.256Z,334.00
2023-01-08T02:55:33.205Z,334.00
2023-01-08T02:56:33.166Z,336.00
2023-01-08T02:57:33.132Z,339.00
2023-01-08T02:58:33.095Z,339.00
2023-01-08T02:59:33.056Z,338.00
2023-01-08T03:00:33.011Z,335.00
2023-01-08T03:01:33.086Z,336.00
2023-01-08T03:02:33.149Z,336.00
2023-01-08T07:25:25.959Z,337.00
2023-01-08T07:26:24.403Z,338.00
2023-01-08T07:27:24.370Z,340.00
2023-01-08T07:28:24.333Z,339.00
2023-01-08T07:29:24.304Z,338.00
2023-01-08T07:30:29.842Z,339.00
2023-01-08T07:31:25.262Z,339.00
2023-01-08T07:32:24.199Z,341.00
2023-01-08T07:33:24.165Z,340.00
2023-01-08T07:34:24.236Z,341.00
2023-01-08T07:36:24.066Z,340.00
2023-01-08T07:37:24.030Z,339.00
2023-01-08T07:38:24.003Z,338.00
2023-01-08T07:39:23.973Z,339.00
2023-01-08T07:40:23.953Z,341.00
2023-01-08T07:41:23.911Z,343.00
2023-01-08T07:42:23.871Z,344.00
2023-01-08T07:43:23.842Z,342.00
2023-01-08T07:44:23.812Z,341.00
2023-01-08T07:45:23.775Z,340.00
2023-01-08T07:46:23.750Z,337.00
2023-01-08T07:47:23.696Z,342.00
2023-01-08T07:48:23.667Z,343.00
2023-01-08T07:49:23.632Z,342.00
2023-01-08T07:50:23.690Z,342.00
2023-01-08T07:51:23.569Z,342.00
2023-01-08T07:52:23.530Z,345.00
2023-01-08T07:53:23.494Z,344.00
2023-01-08T07:54:23.475Z,343.00
2023-01-08T07:55:23.435Z,343.00
2023-01-08T07:56:23.401Z,345.00
2023-01-08T07:57:23.365Z,346.00
2023-01-08T07:58:23.336Z,344.00
2023-01-08T07:59:23.300Z,342.00
2023-01-08T08:00:23.269Z,340.00
2023-01-08T08:01:23.381Z,338.00
2023-01-08T08:02:23.418Z,338.00
2023-01-08T08:03:23.206Z,336.00
2023-01-08T08:04:23.135Z,337.00
2023-01-08T08:05:23.125Z,335.00
2023-01-08T08:06:23.166Z,335.00
2023-01-08T08:07:23.055Z,338.00
2023-01-08T08:08:23.016Z,338.00
2023-01-08T08:09:22.994Z,336.00
2023-01-08T08:10:22.961Z,338.00
2023-01-08T08:11:22.934Z,336.00
2023-01-08T09:12:21.110Z,343.00
2023-01-08T09:13:21.095Z,347.00
2023-01-08T09:14:21.048Z,345.00
2023-01-08T09:15:21.021Z,344.00
2023-01-08T09:16:21.036Z,343.00
2023-01-08T09:17:20.957Z,343.00
2023-01-08T09:18:20.929Z,345.00
2023-01-08T09:19:20.909Z,345.00
2023-01-08T09:20:20.869Z,343.00
2023-01-08T09:21:20.837Z,345.00
2023-01-08T09:22:20.836Z,348.00
2023-01-08T09:23:20.778Z,347.00
2023-01-08T09:24:20.752Z,346.00
2023-01-08T09:25:20.722Z,345.00
2023-01-08T09:26:20.779Z,346.00
2023-01-08T09:27:20.666Z,347.00
2023-01-08T09:28:20.625Z,350.00
2023-01-08T09:29:20.611Z,353.00
2023-01-08T09:30:20.578Z,353.00
2023-01-08T09:31:20.603Z,349.00
2023-01-08T09:32:20.527Z,347.00
2023-01-08T09:33:20.482Z,346.00
2023-01-08T09:34:20.459Z,347.00
2023-01-08T09:35:20.432Z,347.00
2023-01-08T09:36:20.399Z,346.00
2023-01-08T09:37:20.358Z,346.00
2023-01-08T09:38:20.334Z,347.00
2023-01-08T09:39:20.307Z,346.00
2023-01-08T09:40:20.273Z,345.00
2023-01-08T09:41:20.242Z,344.00
2023-01-08T09:42:20.313Z,343.00
2023-01-08T09:43:20.175Z,343.00
2023-01-08T09:44:20.144Z,342.00
2023-01-08T09:45:20.118Z,342.00
2023-01-08T09:46:20.156Z,340.00
2023-01-08T09:47:20.048Z,341.00
2023-01-08T09:48:20.025Z,341.00
2023-01-08T09:49:19.981Z,341.00
2023-01-08T09:50:19.953Z,345.00
2023-01-08T09:51:19.920Z,346.00
2023-01-08T09:52:19.892Z,345.00
2023-01-08T09:53:19.858Z,345.00
2023-01-08T09:54:19.828Z,345.00
2023-01-08T09:55:19.791Z,347.00
2023-01-08T09:56:19.770Z,351.00
2023-01-08T09:57:19.744Z,348.00
2023-01-08T09:58:19.804Z,346.00
2023-01-08T09:59:19.683Z,346.00
2023-01-08T10:00:19.651Z,344.00
2023-01-08T10:01:19.757Z,343.00
2023-01-08T10:02:19.722Z,341.00
2023-01-08T10:03:19.577Z,340.00
2023-01-08T10:04:19.532Z,340.00
2023-01-08T10:05:19.491Z,339.00
2023-01-08T10:06:19.461Z,341.00
2023-01-08T10:07:19.441Z,339.00
2023-01-08T10:08:19.407Z,337.00
2023-01-08T10:09:19.379Z,337.00
2023-01-08T10:10:19.354Z,338.00
2023-01-08T10:11:19.320Z,336.00
2023-01-08T10:12:19.289Z,335.00
2023-01-08T10:13:19.267Z,332.00
2023-01-08T10:14:19.334Z,335.00
2023-01-08T10:15:19.195Z,334.00
2023-01-08T10:16:19.187Z,337.00
2023-01-08T10:17:19.145Z,340.00
2023-01-08T10:18:19.136Z,338.00
2023-01-08T10:19:19.101Z,336.00
2023-01-08T10:20:19.064Z,338.00
2023-01-08T10:21:19.039Z,339.00
2023-01-08T10:22:19.013Z,338.00
2023-01-08T10:23:18.977Z,338.00
2023-01-08T10:24:18.971Z,338.00
2023-01-08T10:25:18.935Z,337.00
2023-01-08T10:26:18.904Z,338.00
2023-01-08T10:27:18.867Z,336.00
2023-01-08T10:28:18.831Z,336.00
2023-01-08T10:29:18.810Z,337.00
2023-01-08T10:30:18.774Z,332.00
2023-01-08T10:31:18.756Z,333.00
2023-01-08T10:32:18.705Z,334.00
2023-01-08T10:33:18.677Z,336.00
2023-01-08T10:34:18.658Z,336.00
2023-01-08T10:35:18.656Z,336.00
2023-01-08T10:36:18.602Z,334.00
2023-01-08T10:37:18.566Z,333.00
2023-01-08T10:38:18.521Z,334.00
2023-01-08T10:39:18.489Z,332.00
2023-01-08T10:40:18.452Z,332.00
2023-01-08T10:41:18.465Z,332.00
2023-01-08T10:42:18.396Z,334.00
2023-01-08T10:43:18.380Z,335.00
2023-01-08T10:44:18.337Z,332.00
2023-01-08T10:45:18.304Z,333.00
2023-01-08T10:46:18.365Z,334.00
2023-01-08T10:47:18.244Z,335.00
2023-01-08T10:48:18.227Z,337.00
2023-01-08T10:49:18.202Z,338.00
2023-01-08T10:50:18.154Z,339.00
2023-01-08T10:51:18.124Z,336.00
2023-01-08T10:52:18.074Z,338.00
2023-01-08T10:53:18.045Z,342.00
2023-01-08T10:54:18.017Z,342.00
2023-01-08T10:55:17.990Z,340.00
2023-01-08T10:56:17.960Z,340.00
2023-01-08T10:57:17.922Z,340.00
2023-01-08T10:58:17.900Z,337.00
2023-01-08T10:59:17.856Z,335.00
2023-01-08T11:00:17.810Z,333.00
2023-01-08T11:01:17.840Z,336.00
2023-01-08T11:02:17.776Z,341.00
2023-01-08T11:03:17.731Z,343.00
2023-01-08T11:04:17.698Z,341.00
2023-01-08T11:05:17.662Z,340.00
2023-01-08T11:06:17.627Z,340.00
2023-01-08T11:07:17.598Z,341.00
2023-01-08T11:08:17.561Z,338.00
2023-01-08T11:09:17.539Z,338.00
2023-01-08T11:10:17.505Z,336.00
2023-01-08T11:11:17.453Z,336.00
2023-01-08T11:12:17.416Z,338.00
2023-01-08T11:13:17.393Z,336.00
2023-01-08T11:14:17.355Z,337.00
2023-01-08T11:15:17.313Z,336.00
2023-01-08T11:16:17.322Z,335.00
2023-01-08T11:17:17.254Z,335.00
2023-01-08T11:18:17.223Z,335.00
2023-01-08T11:19:17.728Z,333.00
2023-01-08T11:20:17.159Z,334.00
2023-01-08T11:21:17.126Z,332.00
2023-01-08T11:22:17.092Z,331.00
2023-01-08T11:23:17.059Z,332.00
2023-01-08T11:24:17.037Z,331.00
2023-01-08T11:25:17.015Z,333.00
2023-01-08T11:26:16.997Z,332.00
2023-01-08T11:27:16.958Z,331.00
2023-01-08T11:28:16.929Z,331.00
2023-01-08T11:29:16.892Z,332.00
2023-01-08T11:30:16.867Z,332.00
2023-01-08T11:31:16.881Z,336.00
2023-01-08T11:32:16.803Z,335.00
2023-01-08T11:33:16.773Z,333.00
2023-01-08T11:34:16.740Z,333.00
2023-01-08T11:35:16.709Z,333.00
2023-01-08T11:36:16.682Z,329.00
2023-01-08T11:37:16.641Z,330.00
2023-01-08T11:38:16.609Z,330.00
2023-01-08T11:39:16.579Z,328.00
2023-01-08T11:40:16.531Z,330.00
2023-01-08T11:41:16.501Z,329.00
2023-01-08T11:42:16.465Z,332.00
2023-01-08T11:43:16.428Z,329.00
2023-01-08T11:44:16.388Z,331.00
2023-01-08T11:45:16.364Z,334.00
2023-01-08T11:46:16.324Z,336.00
2023-01-08T11:47:16.292Z,337.00
2023-01-08T11:48:16.265Z,338.00
2023-01-08T11:49:16.232Z,341.00
2023-01-08T11:50:16.195Z,337.00
2023-01-08T11:51:16.152Z,336.00
2023-01-08T11:52:16.113Z,339.00
2023-01-08T11:53:16.084Z,339.00
2023-01-08T11:54:16.029Z,339.00
2023-01-08T11:55:16.005Z,339.00
2023-01-08T11:56:15.977Z,338.00
2023-01-08T11:57:15.936Z,336.00
2023-01-08T11:58:15.902Z,332.00
2023-01-08T11:59:15.849Z,332.00
2023-01-08T12:00:15.825Z,333.00
2023-01-08T12:01:15.806Z,333.00
2023-01-08T12:02:15.771Z,333.00
2023-01-08T12:03:15.703Z,334.00
2023-01-08T12:04:15.649Z,334.00
2023-01-08T12:05:15.614Z,333.00
2023-01-08T12:06:15.563Z,335.00
2023-01-08T12:07:15.520Z,333.00
2023-01-08T12:08:15.483Z,333.00
2023-01-08T12:09:15.445Z,332.00
2023-01-08T12:10:15.421Z,333.00
2023-01-08T12:11:15.399Z,333.00
2023-01-08T12:12:15.354Z,331.00
2023-01-08T12:13:15.320Z,333.00
2023-01-08T12:14:15.294Z,331.00
2023-01-08T12:15:15.256Z,331.00
2023-01-08T12:16:15.294Z,330.00
2023-01-08T12:17:15.194Z,328.00
2023-01-08T12:18:15.155Z,330.00
2023-01-08T12:19:15.122Z,329.00
2023-01-08T12:20:15.077Z,328.00
2023-01-08T12:21:15.038Z,329.00
2023-01-08T12:22:15.001Z,330.00
2023-01-08T12:23:14.952Z,329.00
2023-01-08T12:24:14.937Z,327.00
2023-01-08T12:25:14.885Z,327.00
2023-01-08T12:26:14.869Z,326.00
2023-01-08T12:27:14.836Z,328.00
2023-01-08T12:28:14.790Z,328.00
2023-01-08T12:29:14.747Z,326.00
2023-01-08T12:30:14.723Z,328.00
2023-01-08T12:31:14.716Z,330.00
2023-01-08T12:32:14.724Z,328.00
2023-01-08T12:33:14.607Z,329.00
2023-01-08T12:34:14.577Z,330.00
2023-01-08T12:35:14.549Z,330.00
2023-01-08T12:36:14.519Z,328.00
2023-01-08T12:37:14.474Z,325.00
2023-01-08T12:38:14.438Z,327.00
2023-01-08T12:39:14.399Z,330.00
2023-01-08T12:40:14.367Z,330.00
2023-01-08T12:41:14.342Z,331.00
2023-01-08T12:42:14.285Z,327.00
2023-01-08T12:43:14.247Z,327.00
2023-01-08T12:44:14.226Z,327.00
2023-01-08T12:45:14.179Z,323.00
2023-01-08T12:46:14.179Z,323.00
2023-01-08T12:47:14.108Z,322.00
2023-01-08T12:48:14.100Z,323.00
2023-01-08T12:49:14.048Z,326.00
2023-01-08T12:50:14.007Z,330.00
2023-01-08T12:51:13.950Z,332.00
2023-01-08T12:52:13.915Z,332.00
2023-01-08T12:53:13.904Z,331.00
2023-01-08T12:54:13.869Z,332.00
2023-01-08T12:55:13.812Z,337.00
2023-01-08T12:56:13.793Z,334.00
2023-01-08T12:57:13.752Z,334.00
2023-01-08T12:58:13.708Z,332.00
2023-01-08T12:59:13.678Z,332.00
2023-01-08T13:00:13.649Z,330.00
2023-01-08T13:01:13.731Z,328.00
2023-01-08T13:02:13.676Z,328.00
2023-01-08T13:03:13.552Z,329.00
2023-01-08T13:04:13.534Z,330.00
2023-01-08T13:05:13.504Z,334.00
2023-01-08T13:06:13.474Z,335.00
2023-01-08T13:07:13.428Z,334.00
2023-01-08T13:08:13.403Z,333.00
2023-01-08T13:09:13.367Z,333.00
2023-01-08T13:10:13.342Z,333.00
2023-01-08T13:11:13.293Z,331.00
2023-01-08T13:12:13.251Z,331.00
2023-01-08T13:13:13.210Z,332.00
2023-01-08T13:14:13.178Z,336.00
2023-01-08T13:15:13.155Z,333.00
2023-01-08T13:16:13.134Z,329.00
2023-01-08T13:17:13.077Z,329.00
2023-01-08T13:18:13.059Z,331.00
2023-01-08T13:19:13.008Z,331.00
2023-01-08T13:20:12.968Z,333.00
2023-01-08T13:21:12.938Z,333.00
2023-01-08T13:22:12.897Z,334.00
2023-01-08T13:23:12.859Z,335.00
2023-01-08T13:24:12.825Z,337.00
2023-01-08T13:25:12.791Z,336.00
2023-01-08T13:26:12.854Z,337.00
2023-01-08T13:27:12.737Z,338.00
2023-01-08T13:28:12.707Z,336.00
2023-01-08T13:29:12.675Z,334.00
2023-01-08T13:30:12.654Z,332.00
2023-01-08T13:31:12.607Z,333.00
2023-01-08T13:32:12.584Z,331.00
2023-01-08T13:33:12.565Z,333.00
2023-01-08T13:34:12.541Z,332.00
2023-01-08T13:35:12.504Z,332.00
2023-01-08T13:36:12.444Z,333.00
2023-01-08T13:37:26.923Z,334.00
2023-01-08T13:38:13.400Z,334.00
2023-01-08T13:39:12.364Z,333.00
2023-01-08T13:40:12.341Z,334.00
2023-01-08T13:41:12.295Z,337.00
2023-01-08T13:42:12.263Z,337.00
2023-01-08T13:43:12.251Z,338.00
2023-01-08T13:44:12.210Z,336.00
2023-01-08T13:45:12.180Z,333.00
2023-01-08T13:46:12.177Z,331.00
2023-01-08T13:47:12.126Z,330.00
2023-01-08T13:48:12.081Z,331.00
2023-01-08T13:49:12.049Z,331.00
2023-01-08T13:50:12.024Z,331.00
2023-01-08T13:51:11.989Z,334.00
2023-01-08T13:52:11.960Z,339.00
2023-01-08T13:53:11.931Z,337.00
2023-01-08T13:54:11.925Z,338.00
2023-01-08T13:55:11.878Z,341.00
2023-01-08T13:56:11.844Z,340.00
2023-01-08T13:57:11.809Z,336.00
2023-01-08T13:58:11.786Z,336.00
2023-01-08T13:59:11.751Z,337.00
2023-01-08T14:00:11.726Z,336.00
2023-01-08T14:01:11.774Z,333.00
2023-01-08T14:02:11.722Z,333.00
2023-01-08T14:03:11.629Z,335.00
2023-01-08T14:04:11.596Z,334.00
2023-01-08T14:05:11.566Z,331.00
2023-01-08T14:06:11.557Z,330.00
2023-01-08T14:07:11.517Z,331.00
2023-01-08T14:08:11.476Z,332.00
2023-01-08T14:09:11.449Z,332.00
2023-01-08T14:10:11.481Z,333.00
2023-01-08T14:11:11.387Z,333.00
2023-01-08T14:12:11.347Z,335.00
2023-01-08T14:13:11.316Z,336.00
2023-01-08T14:14:11.280Z,335.00
2023-01-08T14:15:11.259Z,338.00
2023-01-08T14:16:11.274Z,334.00
2023-01-08T14:17:11.183Z,333.00
2023-01-08T14:18:11.152Z,333.00
2023-01-08T14:19:11.116Z,334.00
2023-01-08T14:20:11.085Z,330.00
2023-01-08T14:21:11.046Z,332.00
2023-01-08T14:22:11.017Z,331.00
2023-01-08T14:23:10.998Z,330.00
2023-01-08T14:24:10.956Z,331.00
2023-01-08T14:25:12.365Z,330.00
2023-01-08T14:26:10.898Z,332.00
2023-01-08T14:27:10.854Z,335.00
2023-01-08T14:28:10.823Z,335.00
2023-01-08T14:29:10.788Z,334.00
2023-01-08T14:30:10.752Z,335.00
2023-01-08T14:31:10.715Z,336.00
2023-01-08T14:32:10.687Z,335.00
2023-01-08T14:33:10.657Z,336.00
2023-01-08T14:34:10.641Z,338.00
2023-01-08T14:35:10.588Z,337.00
2023-01-08T14:36:10.557Z,340.00
2023-01-08T14:37:10.515Z,338.00
2023-01-08T14:38:10.486Z,336.00
2023-01-08T14:39:10.457Z,336.00
2023-01-08T14:40:10.415Z,339.00
2023-01-08T14:41:10.380Z,337.00
2023-01-08T14:42:10.339Z,339.00
2023-01-08T14:43:10.312Z,338.00
2023-01-08T14:44:10.282Z,338.00
2023-01-08T14:45:10.231Z,339.00
2023-01-08T14:46:10.276Z,336.00
2023-01-08T14:47:10.163Z,337.00
2023-01-08T14:48:10.122Z,337.00
2023-01-08T14:49:10.091Z,336.00
2023-01-08T14:50:10.060Z,338.00
2023-01-08T14:51:10.023Z,336.00
2023-01-08T14:52:09.991Z,337.00
2023-01-08T14:53:09.951Z,336.00
2023-01-08T14:54:09.927Z,336.00
2023-01-08T14:55:09.895Z,339.00
2023-01-08T14:56:09.857Z,339.00
2023-01-08T14:57:09.816Z,343.00
2023-01-08T14:58:09.797Z,344.00
2023-01-08T14:59:09.768Z,345.00
2023-01-08T15:00:09.734Z,341.00
2023-01-08T15:01:09.860Z,342.00
2023-01-08T15:02:09.881Z,338.00
2023-01-08T15:03:09.616Z,336.00
2023-01-08T15:04:09.585Z,335.00
2023-01-08T15:05:09.537Z,334.00
2023-01-08T15:06:09.506Z,337.00
2023-01-08T15:07:09.463Z,336.00
2023-01-08T15:08:09.434Z,334.00
2023-01-08T15:09:10.298Z,333.00
2023-01-08T15:10:09.364Z,333.00
2023-01-08T15:11:09.336Z,333.00
2023-01-08T15:12:09.294Z,333.00
2023-01-08T15:13:09.261Z,332.00
2023-01-08T15:14:09.228Z,335.00
2023-01-08T15:15:09.212Z,334.00
2023-01-08T15:16:09.192Z,334.00
2023-01-08T15:17:09.124Z,337.00
2023-01-08T15:18:09.082Z,334.00
2023-01-08T15:19:09.041Z,330.00
2023-01-08T15:20:09.015Z,330.00
2023-01-08T15:21:09.182Z,328.00
2023-01-08T15:22:08.949Z,327.00
2023-01-08T15:23:08.897Z,326.00
2023-01-08T15:24:08.870Z,329.00
2023-01-08T15:25:08.842Z,332.00
2023-01-08T15:26:08.801Z,331.00
2023-01-08T15:27:08.757Z,332.00
2023-01-08T15:28:08.736Z,333.00
2023-01-08T15:29:08.694Z,332.00
2023-01-08T15:30:08.677Z,330.00
2023-01-08T15:31:08.623Z,331.00
2023-01-08T15:32:08.585Z,331.00
2023-01-08T15:33:08.555Z,331.00
2023-01-08T15:34:08.525Z,329.00
2023-01-08T15:35:08.498Z,330.00
2023-01-08T15:36:08.472Z,331.00
2023-01-08T15:37:08.422Z,331.00
2023-01-08T15:38:08.388Z,332.00
2023-01-08T15:39:08.355Z,332.00
2023-01-08T15:40:08.323Z,332.00
2023-01-08T15:41:08.279Z,332.00
2023-01-08T15:42:08.245Z,333.00
2023-01-08T15:43:08.208Z,333.00
2023-01-08T15:44:08.184Z,332.00
2023-01-08T15:45:08.137Z,332.00
2023-01-08T15:46:08.132Z,332.00
2023-01-08T15:47:08.082Z,334.00
2023-01-08T15:48:08.050Z,334.00
2023-01-08T15:49:08.036Z,335.00
2023-01-08T15:50:08.046Z,333.00
2023-01-08T15:51:07.946Z,333.00
2023-01-08T15:52:07.908Z,334.00
2023-01-08T15:53:07.873Z,336.00
2023-01-08T15:54:07.841Z,337.00
2023-01-08T15:55:07.816Z,334.00
2023-01-08T15:56:07.779Z,336.00
2023-01-08T15:57:07.731Z,339.00
2023-01-08T15:58:07.689Z,340.00
2023-01-08T15:59:07.655Z,339.00
2023-01-08T16:00:07.612Z,338.00
2023-01-08T16:01:07.616Z,337.00
2023-01-08T16:02:07.649Z,338.00
2023-01-08T16:03:07.502Z,338.00
2023-01-08T16:04:07.490Z,339.00
2023-01-08T16:05:07.439Z,336.00
2023-01-08T16:06:07.448Z,336.00
2023-01-08T16:07:07.354Z,341.00
2023-01-08T16:08:07.320Z,344.00
2023-01-08T16:09:07.283Z,342.00
2023-01-08T16:10:07.243Z,343.00
2023-01-08T16:11:07.211Z,338.00
2023-01-08T16:12:07.188Z,335.00
2023-01-08T16:13:07.138Z,333.00
2023-01-08T16:14:07.084Z,332.00
2023-01-08T16:15:07.056Z,331.00
2023-01-08T16:16:07.034Z,332.00
2023-01-08T16:17:06.986Z,333.00
2023-01-08T16:18:06.956Z,332.00
2023-01-08T16:19:06.913Z,333.00
2023-01-08T16:20:06.881Z,335.00
2023-01-08T16:21:06.844Z,336.00
2023-01-08T16:22:06.804Z,337.00
2023-01-08T16:23:06.763Z,337.00
2023-01-08T16:24:06.724Z,338.00
2023-01-08T16:25:06.684Z,339.00
2023-01-08T16:26:06.656Z,337.00
2023-01-08T16:27:06.606Z,334.00
2023-01-08T16:28:06.610Z,333.00
2023-01-08T16:29:06.530Z,334.00
2023-01-08T16:30:06.502Z,334.00
2023-01-08T16:31:06.478Z,333.00
2023-01-08T16:32:06.435Z,332.00
2023-01-08T16:33:06.402Z,333.00
2023-01-08T16:34:06.363Z,335.00
2023-01-08T16:35:06.313Z,335.00
2023-01-08T16:36:06.280Z,338.00
2023-01-08T16:37:06.237Z,337.00
2023-01-08T16:38:06.208Z,335.00
2023-01-08T16:39:06.169Z,333.00
2023-01-08T16:40:06.139Z,336.00
2023-01-08T16:41:06.107Z,337.00
2023-01-08T16:42:06.063Z,341.00
2023-01-08T16:43:06.029Z,340.00
2023-01-08T16:44:05.983Z,338.00
2023-01-08T16:45:05.965Z,337.00
2023-01-08T16:46:06.024Z,340.00
2023-01-08T16:47:05.911Z,338.00
2023-01-08T16:48:05.859Z,335.00
2023-01-08T16:49:05.830Z,335.00
2023-01-08T16:50:05.807Z,333.00
2023-01-08T16:51:05.778Z,335.00
2023-01-08T16:52:05.740Z,336.00
2023-01-08T16:53:05.712Z,334.00
2023-01-08T16:54:05.693Z,334.00
2023-01-08T16:55:05.653Z,333.00
2023-01-08T16:56:05.629Z,333.00
2023-01-08T16:57:05.612Z,336.00
2023-01-08T16:58:05.561Z,334.00
2023-01-08T16:59:14.908Z,333.00
2023-01-08T17:00:06.516Z,335.00
2023-01-08T17:01:05.527Z,336.00
2023-01-08T17:02:05.449Z,337.00
2023-01-08T17:03:05.411Z,339.00
2023-01-08T17:04:05.467Z,340.00
2023-01-08T17:05:05.353Z,339.00
2023-01-08T17:06:05.304Z,339.00
2023-01-08T17:07:05.275Z,337.00
2023-01-08T17:08:05.229Z,336.00
2023-01-08T17:09:05.208Z,335.00
2023-01-08T17:10:05.158Z,334.00
2023-01-08T17:11:05.128Z,333.00
2023-01-08T17:12:05.101Z,334.00
2023-01-08T17:13:05.063Z,329.00
2023-01-08T17:14:05.026Z,329.00
2023-01-08T17:15:04.992Z,328.00
2023-01-08T17:16:05.000Z,327.00
2023-01-08T17:17:04.945Z,331.00
2023-01-08T17:18:04.901Z,332.00
2023-01-08T17:19:04.879Z,332.00
2023-01-08T17:20:04.830Z,332.00
2023-01-08T17:21:04.806Z,329.00
2023-01-08T17:22:04.766Z,329.00
2023-01-08T17:23:04.745Z,331.00
2023-01-08T17:24:04.704Z,329.00
2023-01-08T17:25:04.679Z,332.00
2023-01-08T17:26:04.656Z,330.00
2023-01-08T17:27:04.612Z,333.00
2023-01-08T17:28:04.573Z,337.00
2023-01-08T17:29:04.548Z,337.00
2023-01-08T17:30:04.519Z,337.00
2023-01-08T17:31:04.615Z,335.00
2023-01-08T17:32:04.446Z,335.00
2023-01-08T17:33:04.422Z,335.00
2023-01-08T17:34:04.399Z,335.00
2023-01-08T17:35:04.352Z,332.00
2023-01-08T17:36:04.317Z,331.00
2023-01-08T17:37:04.292Z,329.00
2023-01-08T17:38:04.263Z,329.00
2023-01-08T17:39:04.236Z,332.00
2023-01-08T17:40:04.228Z,329.00
2023-01-08T17:41:04.177Z,330.00
2023-01-08T17:42:04.134Z,330.00
2023-01-08T17:43:04.112Z,331.00
2023-01-08T17:44:04.073Z,333.00
2023-01-08T17:45:04.055Z,332.00
2023-01-08T17:46:04.049Z,332.00
2023-01-08T17:47:03.981Z,332.00
2023-01-08T17:48:03.948Z,334.00
2023-01-08T17:49:03.924Z,335.00
2023-01-08T17:50:03.885Z,337.00
2023-01-08T17:51:03.858Z,334.00